Time;durP1;ratioP1;P1;durP2;ratioP2;P2;SDS_P1;SDS_P2;PMS_P1;PMS_P2;Temp;Humidity;BMP_temperature;BMP_pressure;BME280_temperature;BME280_humidity;BME280_pressure;Samples;Min_cycle;Max_cycle;Signal;HPM_P1;HPM_P2
2024/04/08 00:02:20;;;;;;;5.07;4.47;;;20.10;8.20;;;;;;4861584;29;20451;-83
2024/04/08 00:04:52;;;;;;;7.50;4.77;;;20.00;8.20;;;;;;4860539;29;20444;-83
2024/04/08 00:07:19;;;;;;;7.27;4.83;;;20.00;8.40;;;;;;4859709;29;20215;-83
2024/04/08 00:09:44;;;;;;;8.30;5.00;;;20.00;9.10;;;;;;4857339;29;20434;-82
2024/04/08 00:12:19;;;;;;;8.67;5.47;;;19.90;9.00;;;;;;4859241;29;20798;-83
2024/04/08 00:15:00;;;;;;;7.47;5.50;;;19.80;9.10;;;;;;4853127;29;20221;-82
2024/04/08 00:17:30;;;;;;;9.13;5.83;;;19.80;9.10;;;;;;4838425;29;20987;-84
2024/04/08 00:20:10;;;;;;;10.90;6.20;;;19.80;9.30;;;;;;4857918;29;20960;-83
2024/04/08 00:23:08;;;;;;;9.83;4.90;;;19.80;9.40;;;;;;4863924;29;20538;-83
2024/04/08 00:25:39;;;;;;;6.77;4.90;;;19.70;9.80;;;;;;4855041;29;20444;-83
2024/04/08 00:28:10;;;;;;;17.70;5.60;;;19.70;10.10;;;;;;4846046;29;20570;-82
2024/04/08 00:30:45;;;;;;;8.87;5.60;;;19.70;10.40;;;;;;4854779;29;20935;-82
2024/04/08 00:33:11;;;;;;;7.47;5.57;;;19.60;10.80;;;;;;4859832;29;20577;-83
2024/04/08 00:35:37;;;;;;;8.17;4.97;;;19.50;10.80;;;;;;4855495;29;20520;-82
2024/04/08 00:38:04;;;;;;;6.90;4.97;;;19.50;11.40;;;;;;4861508;29;20845;-83
2024/04/08 00:40:41;;;;;;;9.03;5.10;;;19.50;11.50;;;;;;4863429;29;20182;-83
2024/04/08 00:43:10;;;;;;;8.70;5.47;;;19.50;10.80;;;;;;4853347;29;20829;-83
2024/04/08 00:45:59;;;;;;;7.60;4.90;;;19.50;10.70;;;;;;4854676;29;20435;-83
2024/04/08 00:48:53;;;;;;;7.23;4.90;;;19.50;10.60;;;;;;4859664;29;20460;-83
2024/04/08 00:51:46;;;;;;;10.47;6.10;;;19.40;10.50;;;;;;4855151;29;20431;-82
2024/04/08 00:54:43;;;;;;;10.20;5.33;;;19.30;11.20;;;;;;4862781;29;21008;-82
2024/04/08 00:57:24;;;;;;;8.77;5.23;;;19.20;11.50;;;;;;4865266;29;20451;-82
2024/04/08 01:00:26;;;;;;;7.57;5.50;;;19.20;11.60;;;;;;4857361;29;20452;-82
2024/04/08 01:02:53;;;;;;;8.77;5.20;;;19.30;11.80;;;;;;4856803;29;20895;-82
2024/04/08 01:05:31;;;;;;;8.23;6.30;;;19.30;12.20;;;;;;4847589;29;20440;-83
2024/04/08 01:08:22;;;;;;;12.80;5.50;;;19.20;12.20;;;;;;4858479;29;20470;-82
2024/04/08 01:10:55;;;;;;;10.70;5.40;;;19.30;12.60;;;;;;4861132;29;20507;-82
2024/04/08 01:13:48;;;;;;;9.33;5.73;;;19.20;12.60;;;;;;4862208;29;20494;-82
2024/04/08 01:17:08;;;;;;;5.03;4.53;;;19.20;12.50;;;;;;4861334;29;20530;-82
2024/04/08 01:19:37;;;;;;;7.20;5.10;;;19.20;12.60;;;;;;4861319;29;20975;-83
2024/04/08 01:22:30;;;;;;;8.97;5.40;;;19.10;12.50;;;;;;4861341;29;20519;-82
2024/04/08 01:25:11;;;;;;;5.87;5.30;;;19.00;12.40;;;;;;4872865;29;20443;-82
2024/04/08 01:28:05;;;;;;;7.40;5.30;;;19.00;12.90;;;;;;4853130;29;20911;-83
2024/04/08 01:30:36;;;;;;;5.53;5.13;;;19.00;12.90;;;;;;4859941;29;20425;-84
2024/04/08 01:33:40;;;;;;;8.90;6.30;;;19.10;12.60;;;;;;4859270;29;20482;-83
2024/04/08 01:36:14;;;;;;;6.13;5.53;;;19.10;12.80;;;;;;4845506;29;21089;-83
2024/04/08 01:38:54;;;;;;;8.13;5.83;;;19.00;12.40;;;;;;4853219;29;20428;-82
2024/04/08 01:41:20;;;;;;;8.77;5.87;;;19.00;12.40;;;;;;4858979;29;20855;-83
2024/04/08 01:43:52;;;;;;;6.40;5.20;;;19.00;12.80;;;;;;4853262;29;20453;-83
2024/04/08 01:46:22;;;;;;;6.63;5.67;;;19.10;13.20;;;;;;4861371;29;20254;-83
2024/04/08 01:48:51;;;;;;;9.13;5.97;;;19.00;13.00;;;;;;4861269;29;20495;-84
2024/04/08 01:51:21;;;;;;;5.53;5.07;;;19.10;12.50;;;;;;4851479;29;20953;-82
2024/04/08 01:53:52;;;;;;;12.77;6.10;;;19.10;13.10;;;;;;4846392;29;20479;-83
2024/04/08 01:56:19;;;;;;;6.13;5.13;;;19.00;13.10;;;;;;4859528;29;20424;-83
2024/04/08 01:58:51;;;;;;;6.73;5.60;;;19.00;13.50;;;;;;4862495;29;20451;-83
2024/04/08 02:01:17;;;;;;;5.70;5.20;;;19.00;13.90;;;;;;4846765;29;20429;-83
2024/04/08 02:03:58;;;;;;;8.00;6.10;;;19.00;13.60;;;;;;4860074;29;20507;-82
2024/04/08 02:10:26;;;;;;;9.03;6.10;;;18.90;13.80;;;;;;4850342;29;20447;-83
2024/04/08 02:13:04;;;;;;;8.10;6.13;;;18.90;14.00;;;;;;4857577;29;20531;-82
2024/04/08 02:15:31;;;;;;;12.10;6.40;;;18.90;14.10;;;;;;4858889;29;20444;-82
2024/04/08 02:17:58;;;;;;;7.83;5.57;;;18.90;13.80;;;;;;4857573;29;20921;-82
2024/04/08 02:21:25;;;;;;;8.27;6.27;;;18.90;13.90;;;;;;4861606;29;20453;-82
2024/04/08 02:23:52;;;;;;;8.63;5.83;;;18.90;13.70;;;;;;4872856;29;20995;-83
2024/04/08 02:26:21;;;;;;;12.27;6.90;;;18.90;13.50;;;;;;4859402;29;20522;-82
2024/04/08 02:29:19;;;;;;;7.80;5.50;;;18.90;13.10;;;;;;4843500;29;20468;-82
2024/04/08 02:32:16;;;;;;;6.70;5.47;;;18.90;13.00;;;;;;4854755;29;20443;-82
2024/04/08 02:34:48;;;;;;;11.13;6.03;;;18.90;13.10;;;;;;4860762;29;20459;-83
2024/04/08 02:37:52;;;;;;;9.80;5.57;;;18.90;13.80;;;;;;4860846;29;20434;-81
2024/04/08 02:40:22;;;;;;;5.50;5.00;;;18.90;14.00;;;;;;4842745;29;20437;-82
2024/04/08 02:42:52;;;;;;;9.20;5.97;;;18.90;14.10;;;;;;4847074;29;20467;-82
2024/04/08 02:46:17;;;;;;;7.77;6.20;;;18.80;14.30;;;;;;4837087;29;20480;-82
2024/04/08 02:49:22;;;;;;;7.50;6.27;;;18.80;14.00;;;;;;4806860;29;20478;-82
2024/04/08 02:52:26;;;;;;;7.27;5.90;;;18.80;14.00;;;;;;4793448;29;20846;-83
2024/04/08 02:55:12;;;;;;;7.63;6.00;;;18.80;14.40;;;;;;4792394;29;20430;-82
2024/04/08 02:58:34;;;;;;;7.10;6.33;;;18.80;14.00;;;;;;4804670;29;20430;-82
2024/04/08 03:01:14;;;;;;;15.07;6.70;;;18.80;13.80;;;;;;4805966;29;21014;-83
2024/04/08 03:04:11;;;;;;;11.50;5.47;;;18.80;14.10;;;;;;4811225;29;20486;-84
2024/04/08 03:06:37;;;;;;;10.83;6.33;;;18.70;14.30;;;;;;4856266;29;20437;-83
2024/04/08 03:09:25;;;;;;;7.00;6.30;;;18.70;14.20;;;;;;4856177;29;20546;-82
2024/04/08 03:12:46;;;;;;;8.73;6.00;;;18.70;14.40;;;;;;4842563;29;20569;-83
2024/04/08 03:15:15;;;;;;;9.30;7.23;;;18.70;14.50;;;;;;4866082;29;20427;-84
2024/04/08 03:18:22;;;;;;;14.43;6.80;;;18.60;14.40;;;;;;4856277;29;20911;-83
2024/04/08 03:21:28;;;;;;;7.00;6.37;;;18.60;14.30;;;;;;4854844;29;20435;-83
2024/04/08 03:23:57;;;;;;;9.83;6.70;;;18.60;13.90;;;;;;4866126;29;20489;-84
2024/04/08 03:26:58;;;;;;;9.10;6.20;;;18.60;13.90;;;;;;4866906;29;20429;-83
2024/04/08 03:30:22;;;;;;;10.30;6.73;;;18.60;14.90;;;;;;4854639;29;20415;-83
2024/04/08 03:32:56;;;;;;;9.83;6.47;;;18.50;14.20;;;;;;4844326;29;20875;-83
2024/04/08 03:35:29;;;;;;;7.07;6.47;;;18.50;14.30;;;;;;4877065;29;20432;-83
2024/04/08 03:38:02;;;;;;;9.90;6.77;;;18.50;14.40;;;;;;4874667;29;20424;-83
2024/04/08 03:40:32;;;;;;;8.30;7.20;;;18.50;14.40;;;;;;4884389;29;20471;-83
2024/04/08 03:43:01;;;;;;;8.47;6.30;;;18.40;14.70;;;;;;4874117;29;20456;-84
2024/04/08 03:45:28;;;;;;;7.37;6.67;;;18.40;15.20;;;;;;4869803;29;20450;-83
2024/04/08 03:47:59;;;;;;;9.73;6.30;;;18.40;14.60;;;;;;4851072;29;20948;-84
2024/04/08 03:50:43;;;;;;;7.40;6.60;;;18.30;14.50;;;;;;4826267;29;20448;-83
2024/04/08 03:53:12;;;;;;;9.20;6.47;;;18.40;14.50;;;;;;4868809;29;20458;-83
2024/04/08 03:55:48;;;;;;;12.60;6.47;;;18.30;14.60;;;;;;4875899;29;20423;-82
2024/04/08 03:58:33;;;;;;;11.20;6.33;;;18.30;14.80;;;;;;4882955;29;20498;-83
2024/04/08 04:01:10;;;;;;;7.97;6.03;;;18.30;14.70;;;;;;4876688;29;20425;-83
2024/04/08 04:03:37;;;;;;;9.97;6.60;;;18.20;15.00;;;;;;4867939;29;20448;-83
2024/04/08 04:06:30;;;;;;;7.43;6.73;;;18.10;15.50;;;;;;4888244;29;20446;-82
2024/04/08 04:08:58;;;;;;;8.53;7.70;;;18.10;15.60;;;;;;4860549;29;20463;-82
2024/04/08 04:11:54;;;;;;;8.60;7.20;;;18.10;15.50;;;;;;4855085;29;20436;-82
2024/04/08 04:14:55;;;;;;;11.37;6.90;;;18.10;15.50;;;;;;4862236;29;20455;-82
2024/04/08 04:17:22;;;;;;;10.60;7.40;;;18.00;15.30;;;;;;4869510;29;20442;-82
2024/04/08 04:20:35;;;;;;;10.43;7.87;;;18.10;15.30;;;;;;4862211;29;20428;-82
2024/04/08 04:23:46;;;;;;;9.37;7.27;;;18.00;15.40;;;;;;4860498;29;20847;-82
2024/04/08 04:28:59;;;;;;;9.07;8.17;;;18.00;15.40;;;;;;4861092;29;20474;-83
2024/04/08 04:31:56;;;;;;;9.93;8.30;;;18.00;15.40;;;;;;4843753;29;20448;-82
2024/04/08 04:34:22;;;;;;;11.33;8.20;;;18.00;15.40;;;;;;4832474;29;20471;-82
2024/04/08 04:37:03;;;;;;;9.80;7.30;;;18.00;15.60;;;;;;4851518;29;20933;-82
2024/04/08 04:40:01;;;;;;;9.20;8.23;;;18.00;15.70;;;;;;4848159;29;20691;-81
2024/04/08 04:42:30;;;;;;;11.20;6.90;;;18.00;15.60;;;;;;4843273;29;21719;-82
2024/04/08 04:45:37;;;;;;;7.57;6.47;;;18.00;16.00;;;;;;4854980;29;20561;-82
2024/04/08 04:49:03;;;;;;;7.80;7.20;;;18.00;16.10;;;;;;4841146;29;20684;-82
2024/04/08 04:52:20;;;;;;;12.77;7.90;;;18.00;16.10;;;;;;4860149;29;20432;-84
2024/04/08 04:54:49;;;;;;;8.33;7.33;;;17.90;16.10;;;;;;4850657;29;20452;-83
2024/04/08 04:57:16;;;;;;;10.63;8.17;;;17.90;16.30;;;;;;4857691;29;20437;-82
2024/04/08 04:59:42;;;;;;;10.07;8.20;;;17.90;16.30;;;;;;4848947;29;20419;-83
2024/04/08 05:02:10;;;;;;;10.00;7.70;;;17.90;16.00;;;;;;4859258;29;20426;-83
2024/04/08 05:04:36;;;;;;;13.33;8.87;;;17.90;16.30;;;;;;4860063;29;20612;-82
2024/04/08 05:07:34;;;;;;;8.50;7.80;;;17.80;16.00;;;;;;4864452;29;20483;-82
2024/04/08 05:10:00;;;;;;;12.80;8.50;;;17.80;16.20;;;;;;4856600;29;20542;-83
2024/04/08 05:12:27;;;;;;;8.10;7.50;;;17.80;15.90;;;;;;4855103;29;20479;-82
2024/04/08 05:14:52;;;;;;;8.77;7.60;;;17.80;16.40;;;;;;4879597;29;20194;-83
2024/04/08 05:17:18;;;;;;;11.80;8.60;;;17.80;15.90;;;;;;4866644;29;20487;-83
2024/04/08 05:20:26;;;;;;;12.67;8.60;;;17.80;16.00;;;;;;4863856;29;20206;-83
2024/04/08 05:22:52;;;;;;;11.97;8.50;;;17.80;16.30;;;;;;4860496;29;20755;-83
2024/04/08 05:25:18;;;;;;;14.87;9.17;;;17.80;16.30;;;;;;4862374;29;20941;-84
2024/04/08 05:27:43;;;;;;;9.67;8.47;;;17.80;16.40;;;;;;4846971;29;20463;-82
2024/04/08 05:30:17;;;;;;;8.63;7.93;;;17.80;16.60;;;;;;4850899;29;20266;-85
2024/04/08 05:32:48;;;;;;;12.83;9.63;;;17.80;16.70;;;;;;4856867;29;20667;-83
2024/04/08 05:35:14;;;;;;;11.50;8.70;;;17.80;16.90;;;;;;4859222;29;20447;-83
2024/04/08 05:37:39;;;;;;;9.17;8.40;;;17.80;17.00;;;;;;4890745;23;20494;-79
2024/04/08 05:40:09;;;;;;;9.73;8.13;;;17.80;17.10;;;;;;4882763;29;20246;-78
2024/04/08 05:42:34;;;;;;;12.67;8.63;;;17.80;17.00;;;;;;4890420;29;20200;-77
2024/04/08 05:45:00;;;;;;;9.07;7.80;;;17.80;17.20;;;;;;4884059;29;20431;-77
2024/04/08 05:47:25;;;;;;;13.93;7.90;;;17.80;17.40;;;;;;4883432;29;20210;-78
2024/04/08 05:49:51;;;;;;;11.50;8.57;;;17.80;17.30;;;;;;4862337;29;20269;-77
2024/04/08 05:52:18;;;;;;;9.87;9.00;;;17.80;17.20;;;;;;4861823;29;20659;-77
2024/04/08 05:54:44;;;;;;;10.00;9.07;;;17.80;17.40;;;;;;4861998;29;20182;-77
2024/04/08 05:57:09;;;;;;;9.40;8.20;;;17.90;17.10;;;;;;4862077;29;20458;-77
2024/04/08 05:59:35;;;;;;;9.73;8.57;;;17.80;17.10;;;;;;4870693;29;20190;-79
2024/04/08 06:02:00;;;;;;;10.23;8.03;;;17.80;17.10;;;;;;4865563;29;20270;-78
2024/04/08 06:04:26;;;;;;;11.90;7.80;;;17.90;17.40;;;;;;4861344;29;20270;-77
2024/04/08 06:06:51;;;;;;;8.77;8.03;;;17.90;17.40;;;;;;4859648;29;20230;-78
2024/04/08 06:09:17;;;;;;;10.20;9.10;;;17.90;17.40;;;;;;4860481;29;20682;-77
2024/04/08 06:11:42;;;;;;;9.13;7.47;;;17.90;17.80;;;;;;4860867;29;20195;-78
2024/04/08 06:14:08;;;;;;;13.20;8.23;;;17.90;17.30;;;;;;4860655;29;20202;-77
2024/04/08 06:16:33;;;;;;;9.30;8.40;;;18.00;17.40;;;;;;4860371;29;20548;-77
2024/04/08 06:18:59;;;;;;;14.30;8.63;;;17.90;17.20;;;;;;4859159;29;20224;-77
2024/04/08 06:21:24;;;;;;;12.93;8.60;;;18.00;17.10;;;;;;4860596;29;20194;-79
2024/04/08 06:23:50;;;;;;;10.63;8.13;;;18.00;17.10;;;;;;4860321;29;20194;-77
2024/04/08 06:26:16;;;;;;;12.93;9.10;;;18.00;17.30;;;;;;4860068;29;20545;-76
2024/04/08 06:28:42;;;;;;;13.23;9.43;;;18.00;17.50;;;;;;4845128;29;20198;-76
2024/04/08 06:31:07;;;;;;;10.23;9.10;;;18.00;17.30;;;;;;4860369;29;20443;-77
2024/04/08 06:33:33;;;;;;;13.00;8.80;;;18.00;16.70;;;;;;4866766;29;20549;-77
2024/04/08 06:35:58;;;;;;;12.77;8.97;;;18.00;16.30;;;;;;4860878;29;20235;-77
2024/04/08 06:38:24;;;;;;;15.67;9.67;;;18.10;17.30;;;;;;4858848;29;20690;-77
2024/04/08 06:40:49;;;;;;;15.23;10.00;;;18.10;17.40;;;;;;4860202;29;20179;-78
2024/04/08 06:43:15;;;;;;;10.30;9.23;;;18.20;17.10;;;;;;4860526;29;20187;-78
2024/04/08 06:45:40;;;;;;;15.10;9.10;;;18.20;17.70;;;;;;4868242;29;20186;-78
2024/04/08 06:48:06;;;;;;;9.93;9.03;;;18.20;17.60;;;;;;4864948;29;20721;-77
2024/04/08 06:50:31;;;;;;;11.90;9.50;;;18.30;17.50;;;;;;4881586;29;20186;-76
2024/04/08 06:52:57;;;;;;;12.50;9.30;;;18.30;17.80;;;;;;4867182;29;20530;-76
2024/04/08 06:55:24;;;;;;;12.27;9.10;;;18.30;17.50;;;;;;4863813;29;20214;-77
2024/04/08 06:57:50;;;;;;;17.40;9.50;;;18.30;17.40;;;;;;4863611;29;20222;-77
2024/04/08 07:00:17;;;;;;;14.33;8.67;;;18.30;17.70;;;;;;4863931;29;21141;-79
2024/04/08 07:02:43;;;;;;;14.63;9.10;;;18.30;17.80;;;;;;4864341;29;20202;-77
2024/04/08 07:05:09;;;;;;;10.10;9.20;;;18.30;17.80;;;;;;4864682;29;20427;-77
2024/04/08 07:07:34;;;;;;;9.93;8.60;;;18.40;17.80;;;;;;4864890;29;20211;-78
2024/04/08 07:10:00;;;;;;;12.73;9.50;;;18.40;17.00;;;;;;4864796;29;20658;-79
2024/04/08 07:12:25;;;;;;;10.83;9.73;;;18.40;17.20;;;;;;4866341;29;20193;-77
2024/04/08 07:14:52;;;;;;;14.27;10.07;;;18.40;17.10;;;;;;4882257;29;20182;-78
2024/04/08 07:17:18;;;;;;;12.13;9.90;;;18.50;16.40;;;;;;4890362;29;20194;-77
2024/04/08 07:19:44;;;;;;;17.03;10.67;;;18.50;16.40;;;;;;4885140;29;20911;-78
2024/04/08 07:22:10;;;;;;;9.87;8.83;;;18.50;16.90;;;;;;4884766;29;20182;-77
2024/04/08 07:24:36;;;;;;;14.53;9.53;;;18.60;17.50;;;;;;4865711;29;20965;-78
2024/04/08 07:27:05;;;;;;;17.17;9.20;;;18.60;17.20;;;;;;4866126;29;20202;-77
2024/04/08 07:29:31;;;;;;;10.03;9.03;;;18.60;17.20;;;;;;4866079;29;20565;-77
2024/04/08 07:31:56;;;;;;;13.53;9.83;;;18.60;16.80;;;;;;4878418;29;20972;-78
2024/04/08 07:34:22;;;;;;;18.17;10.33;;;18.70;16.70;;;;;;4884739;29;20426;-77
2024/04/08 07:36:47;;;;;;;10.20;9.13;;;18.70;15.80;;;;;;4881240;29;20621;-77
2024/04/08 07:39:13;;;;;;;16.17;10.43;;;18.70;16.20;;;;;;4863142;29;20278;-77
2024/04/08 07:41:38;;;;;;;12.50;10.07;;;18.80;15.50;;;;;;4862973;29;20690;-76
2024/04/08 07:44:04;;;;;;;18.10;11.13;;;18.80;15.90;;;;;;4862941;29;20385;-78
2024/04/08 07:46:29;;;;;;;16.53;9.63;;;18.90;15.80;;;;;;4880640;29;20210;-77
2024/04/08 07:48:55;;;;;;;12.97;10.93;;;18.90;15.70;;;;;;4883491;29;20206;-78
2024/04/08 07:51:20;;;;;;;13.07;9.63;;;18.90;15.60;;;;;;4884069;29;20654;-78
2024/04/08 07:53:46;;;;;;;11.90;10.70;;;18.90;15.50;;;;;;4882256;29;20174;-78
2024/04/08 07:56:12;;;;;;;11.90;10.10;;;19.00;15.20;;;;;;4883727;29;20182;-77
2024/04/08 07:58:37;;;;;;;11.57;9.70;;;19.00;15.70;;;;;;4866041;29;20556;-77
2024/04/08 08:01:07;;;;;;;19.43;10.47;;;19.10;15.50;;;;;;4866199;29;20223;-78
2024/04/08 08:03:33;;;;;;;12.83;10.73;;;19.10;15.60;;;;;;4865523;29;20183;-78
2024/04/08 08:05:58;;;;;;;12.73;10.83;;;19.20;14.60;;;;;;4865719;29;20465;-78
2024/04/08 08:08:25;;;;;;;11.20;9.63;;;19.30;14.60;;;;;;4872564;29;20222;-77
2024/04/08 08:10:51;;;;;;;12.77;10.20;;;19.30;14.50;;;;;;4862395;29;20273;-77
2024/04/08 08:13:16;;;;;;;11.97;8.30;;;19.40;14.00;;;;;;4862388;29;21037;-77
2024/04/08 08:15:42;;;;;;;9.67;8.63;;;19.40;12.60;;;;;;4862525;29;20199;-77
2024/04/08 08:18:07;;;;;;;14.30;9.80;;;19.50;12.70;;;;;;4862435;29;20219;-78
2024/04/08 08:20:38;;;;;;;10.43;9.33;;;19.60;12.80;;;;;;4862329;29;20198;-77
2024/04/08 08:23:03;;;;;;;10.60;9.53;;;19.60;12.80;;;;;;4862789;29;20264;-77
2024/04/08 08:25:29;;;;;;;10.67;8.77;;;19.70;11.20;;;;;;4862406;29;20836;-77
2024/04/08 08:27:55;;;;;;;12.93;8.97;;;19.80;10.70;;;;;;4862004;29;20195;-77
2024/04/08 08:30:21;;;;;;;10.63;9.23;;;19.80;11.30;;;;;;4862359;29;20419;-78
2024/04/08 08:34:17;;;;;;;10.63;9.60;;;19.90;9.70;;;;;;5507690;25;20665;-76
2024/04/08 08:36:42;;;;;;;11.27;9.80;;;20.00;11.10;;;;;;5507799;26;20476;-77
2024/04/08 08:39:09;;;;;;;10.50;9.70;;;20.10;11.70;;;;;;5507530;26;20222;-77
2024/04/08 08:41:37;;;;;;;9.53;8.73;;;20.20;11.30;;;;;;5507896;26;20227;-77
2024/04/08 08:44:04;;;;;;;11.33;8.60;;;20.40;4.40;;;;;;5507377;26;20578;-78
2024/04/08 08:46:30;;;;;;;8.77;7.90;;;20.90;2.80;;;;;;5505879;26;20970;-78
2024/04/08 08:48:59;;;;;;;10.70;8.27;;;21.10;2.60;;;;;;5509361;26;20463;-77
2024/04/08 08:51:26;;;;;;;8.93;8.13;;;21.30;2.20;;;;;;5507736;26;20234;-77
2024/04/08 08:53:52;;;;;;;13.83;8.63;;;21.50;1.30;;;;;;5509076;26;20574;-78
2024/04/08 08:56:17;;;;;;;9.27;8.30;;;21.70;1.40;;;;;;5508816;26;20880;-78
2024/04/08 08:58:50;;;;;;;10.07;9.03;;;21.80;3.10;;;;;;5508664;26;20219;-78
2024/04/08 09:01:16;;;;;;;11.03;8.20;;;21.80;1.50;;;;;;5509508;26;20234;-77
2024/04/08 09:03:43;;;;;;;13.77;8.70;;;21.90;2.40;;;;;;5541895;25;20880;-77
2024/04/08 09:06:09;;;;;;;8.90;8.10;;;21.90;3.10;;;;;;5546412;25;20462;-77
2024/04/08 09:08:35;;;;;;;10.77;8.63;;;21.90;2.50;;;;;;5510473;25;20501;-77
2024/04/08 09:11:05;;;;;;;9.73;7.90;;;21.80;3.60;;;;;;5516144;25;20494;-78
2024/04/08 09:13:32;;;;;;;12.50;7.80;;;21.80;2.10;;;;;;5529447;25;20273;-78
2024/04/08 09:15:58;;;;;;;10.63;8.80;;;22.10;1.00;;;;;;5506907;26;20526;-77
2024/04/08 09:18:24;;;;;;;11.23;7.97;;;22.10;1.30;;;;;;5511121;26;20459;-78
2024/04/08 09:20:49;;;;;;;9.30;8.40;;;22.40;1.00;;;;;;5540852;25;20227;-77
2024/04/08 09:23:15;;;;;;;10.60;9.60;;;22.50;3.20;;;;;;5510901;26;20230;-77
2024/04/08 09:25:41;;;;;;;10.47;9.37;;;22.50;2.20;;;;;;5510168;26;20277;-77
2024/04/08 09:28:07;;;;;;;9.90;9.00;;;22.60;1.50;;;;;;5510360;26;20227;-77
2024/04/08 09:30:34;;;;;;;9.23;8.63;;;22.80;1.00;;;;;;5526715;25;20508;-78
2024/04/08 09:32:59;;;;;;;10.53;8.33;;;22.90;1.70;;;;;;5509759;25;20463;-77
2024/04/08 09:35:25;;;;;;;9.67;8.77;;;23.00;1.00;;;;;;5539777;25;20519;-77
2024/04/08 09:37:53;;;;;;;10.40;9.47;;;23.00;1.00;;;;;;5531320;25;20614;-78
2024/04/08 09:40:20;;;;;;;9.73;8.93;;;23.20;1.00;;;;;;5518864;25;20463;-77
2024/04/08 09:42:46;;;;;;;11.43;8.73;;;23.30;1.00;;;;;;5511208;26;20575;-79
2024/04/08 09:45:15;;;;;;;13.37;8.77;;;23.40;1.00;;;;;;5505216;26;20474;-77
2024/04/08 09:47:41;;;;;;;10.70;9.67;;;23.50;1.00;;;;;;5491082;26;20248;-78
2024/04/08 09:50:14;;;;;;;9.77;8.83;;;23.70;1.00;;;;;;5508382;26;20552;-78
2024/04/08 09:52:39;;;;;;;8.50;7.90;;;23.70;1.00;;;;;;5505830;25;20496;-77
2024/04/08 09:55:09;;;;;;;11.13;8.63;;;23.80;1.00;;;;;;5507767;26;20448;-77
2024/04/08 09:57:39;;;;;;;13.87;9.00;;;23.90;1.00;;;;;;5512982;26;20235;-78
2024/04/08 10:00:11;;;;;;;8.80;8.00;;;24.00;1.00;;;;;;5500528;26;20515;-77
2024/04/08 10:02:41;;;;;;;9.40;8.53;;;24.10;1.00;;;;;;5496419;26;20456;-78
2024/04/08 10:05:07;;;;;;;9.57;8.70;;;24.20;1.00;;;;;;5490080;26;20609;-79
2024/04/08 10:07:33;;;;;;;8.97;8.10;;;24.20;1.00;;;;;;5481328;26;20489;-79
2024/04/08 10:10:03;;;;;;;7.53;6.80;;;24.40;1.00;;;;;;5485027;26;20269;-79
2024/04/08 10:12:33;;;;;;;8.73;7.80;;;24.40;1.00;;;;;;5479060;26;20450;-78
2024/04/08 10:15:11;;;;;;;8.60;7.70;;;24.40;1.00;;;;;;5487601;26;21069;-79
2024/04/08 10:17:37;;;;;;;8.20;7.67;;;24.40;1.00;;;;;;5494216;26;20565;-78
2024/04/08 10:20:06;;;;;;;9.37;8.47;;;24.40;1.00;;;;;;5496285;26;20476;-79
2024/04/08 10:22:39;;;;;;;9.00;7.57;;;24.40;1.00;;;;;;5512519;26;20236;-80
2024/04/08 10:25:23;;;;;;;7.73;7.13;;;24.30;1.00;;;;;;5499280;26;20464;-79
2024/04/08 10:28:17;;;;;;;12.50;7.93;;;24.40;1.00;;;;;;5483185;26;20595;-78
2024/04/08 10:30:46;;;;;;;8.63;7.93;;;24.50;1.00;;;;;;5484306;26;20580;-78
2024/04/08 10:33:12;;;;;;;8.87;7.87;;;24.60;1.00;;;;;;5486568;26;20484;-79
2024/04/08 10:35:37;;;;;;;9.43;8.50;;;24.60;1.00;;;;;;5501261;26;20549;-78
2024/04/08 10:38:04;;;;;;;10.30;7.20;;;24.70;1.00;;;;;;5499100;26;20235;-77
2024/04/08 10:40:31;;;;;;;16.33;8.90;;;24.80;1.00;;;;;;5499640;26;20239;-78
2024/04/08 10:42:57;;;;;;;8.80;7.90;;;24.90;1.00;;;;;;5516048;25;20532;-77
2024/04/08 10:45:23;;;;;;;11.53;8.90;;;24.90;1.00;;;;;;5516792;25;21018;-78
2024/04/08 10:47:54;;;;;;;11.60;7.90;;;24.90;1.00;;;;;;5496359;25;20499;-78
2024/04/08 10:50:20;;;;;;;9.37;8.40;;;25.00;1.00;;;;;;5507057;26;20269;-78
2024/04/08 10:52:45;;;;;;;8.43;7.93;;;25.00;1.00;;;;;;5532072;25;20575;-77
2024/04/08 10:55:11;;;;;;;8.37;7.60;;;25.00;1.00;;;;;;5533989;25;20303;-77
2024/04/08 10:57:36;;;;;;;8.93;8.03;;;24.90;1.00;;;;;;5532581;25;20230;-78
2024/04/08 11:00:04;;;;;;;8.03;7.40;;;25.00;1.00;;;;;;5524788;26;20230;-77
2024/04/08 11:02:30;;;;;;;8.57;7.87;;;25.10;1.00;;;;;;5523527;25;20285;-78
2024/04/08 11:04:56;;;;;;;8.97;7.90;;;25.20;1.00;;;;;;5529641;25;20522;-78
2024/04/08 11:07:21;;;;;;;10.70;8.77;;;25.20;1.00;;;;;;5518410;25;20560;-78
2024/04/08 11:09:47;;;;;;;8.03;7.40;;;25.10;1.00;;;;;;5493747;26;20272;-78
2024/04/08 11:12:16;;;;;;;9.07;8.27;;;25.00;1.00;;;;;;5521144;25;20230;-77
2024/04/08 11:14:42;;;;;;;9.33;7.30;;;24.90;1.00;;;;;;5529799;25;20290;-79
2024/04/08 11:17:08;;;;;;;10.00;9.10;;;24.80;1.00;;;;;;5528274;25;21132;-77
2024/04/08 11:19:37;;;;;;;8.57;7.87;;;24.70;1.00;;;;;;5527715;25;20255;-77
2024/04/08 11:22:11;;;;;;;12.00;8.00;;;24.90;1.00;;;;;;5529934;25;20462;-77
2024/04/08 11:24:41;;;;;;;9.40;8.50;;;24.90;1.00;;;;;;5528983;25;20462;-77
2024/04/08 11:27:11;;;;;;;9.70;9.00;;;24.90;1.00;;;;;;5527982;25;20596;-79
2024/04/08 11:29:41;;;;;;;10.90;7.80;;;25.00;1.00;;;;;;5529427;25;20497;-78
2024/04/08 11:32:08;;;;;;;7.93;7.33;;;24.90;1.00;;;;;;5529706;25;20451;-78
2024/04/08 11:34:34;;;;;;;12.30;8.03;;;24.90;1.00;;;;;;5529341;25;20466;-77
2024/04/08 11:37:26;;;;;;;10.40;8.13;;;24.80;1.00;;;;;;5502241;21;20590;-83
2024/04/08 11:39:57;;;;;;;11.17;8.67;;;24.80;1.00;;;;;;5320648;26;20215;-84
2024/04/08 11:42:45;;;;;;;10.97;8.50;;;24.90;1.00;;;;;;5323028;26;20512;-81
2024/04/08 11:45:22;;;;;;;8.87;8.07;;;25.00;1.00;;;;;;5320797;26;20554;-84
2024/04/08 11:48:18;;;;;;;10.10;8.50;;;25.00;1.00;;;;;;5319668;26;20478;-82
2024/04/08 11:51:10;;;;;;;11.37;9.10;;;24.90;1.00;;;;;;5332347;26;20520;-83
2024/04/08 11:53:36;;;;;;;10.33;9.33;;;24.90;1.00;;;;;;5383020;26;20480;-82
2024/04/08 11:56:02;;;;;;;9.20;8.40;;;24.90;1.00;;;;;;5364459;26;20526;-83
2024/04/08 11:58:28;;;;;;;13.57;9.20;;;24.90;1.00;;;;;;5319410;26;20243;-83
2024/04/08 12:00:53;;;;;;;9.83;8.80;;;24.90;1.00;;;;;;5323481;26;20574;-83
2024/04/08 12:03:19;;;;;;;12.17;9.47;;;25.00;1.00;;;;;;5329945;26;20240;-83
2024/04/08 12:05:44;;;;;;;11.07;9.97;;;24.90;1.00;;;;;;5336615;26;20320;-82
2024/04/08 12:08:10;;;;;;;9.63;8.50;;;25.00;1.00;;;;;;5352643;26;20246;-83
2024/04/08 12:10:35;;;;;;;13.00;9.00;;;25.10;1.00;;;;;;5385044;26;20713;-82
2024/04/08 12:13:18;;;;;;;10.87;9.87;;;25.00;1.00;;;;;;5318475;26;20235;-83
2024/04/08 12:15:47;;;;;;;9.83;8.10;;;25.00;1.00;;;;;;5318512;26;20231;-82
2024/04/08 12:18:13;;;;;;;9.63;8.73;;;25.30;1.00;;;;;;5326683;26;20827;-82
2024/04/08 12:20:38;;;;;;;12.43;11.30;;;25.50;1.00;;;;;;5383937;26;21032;-82
2024/04/08 12:23:06;;;;;;;11.60;8.03;;;25.70;1.00;;;;;;5383172;26;20230;-82
2024/04/08 12:25:32;;;;;;;9.90;7.53;;;25.70;1.00;;;;;;5385170;26;20344;-81
2024/04/08 12:27:58;;;;;;;10.27;7.27;;;25.70;1.00;;;;;;5347433;26;20484;-82
2024/04/08 12:30:23;;;;;;;7.73;7.10;;;25.70;1.00;;;;;;5332911;26;20481;-82
2024/04/08 12:32:49;;;;;;;9.03;8.23;;;25.60;1.00;;;;;;5385907;26;20756;-82
2024/04/08 12:35:14;;;;;;;13.53;7.93;;;25.70;1.00;;;;;;5374744;26;20240;-82
2024/04/08 12:37:40;;;;;;;9.83;7.80;;;25.70;1.00;;;;;;5348287;26;20311;-81
2024/04/08 12:40:06;;;;;;;7.60;6.77;;;25.70;1.00;;;;;;5363131;26;20299;-83
2024/04/08 12:42:32;;;;;;;10.53;7.80;;;25.60;1.00;;;;;;5319065;26;20674;-82
2024/04/08 12:45:00;;;;;;;9.77;8.43;;;25.50;1.00;;;;;;5317705;26;20481;-82
2024/04/08 12:47:25;;;;;;;10.17;9.20;;;25.40;1.00;;;;;;5340546;26;20235;-83
2024/04/08 12:49:51;;;;;;;10.20;8.57;;;25.30;1.00;;;;;;5308663;26;20534;-83
2024/04/08 12:52:18;;;;;;;14.93;8.97;;;25.20;1.00;;;;;;5340289;26;20257;-82
2024/04/08 12:54:45;;;;;;;14.50;9.57;;;25.10;1.00;;;;;;5350414;26;20282;-82
2024/04/08 12:57:10;;;;;;;9.40;8.33;;;25.30;1.00;;;;;;5381802;26;20468;-82
2024/04/08 12:59:36;;;;;;;13.80;8.43;;;25.50;1.00;;;;;;5334730;26;20606;-82
2024/04/08 13:02:02;;;;;;;17.10;9.07;;;25.60;1.00;;;;;;5335983;26;20231;-81
2024/04/08 13:04:28;;;;;;;10.40;8.60;;;25.90;1.00;;;;;;5345119;26;20625;-82
2024/04/08 13:06:53;;;;;;;10.00;8.30;;;26.10;1.00;;;;;;5382417;26;20560;-81
2024/04/08 13:09:19;;;;;;;12.83;8.20;;;26.10;1.00;;;;;;5378947;26;20230;-82
2024/04/08 13:11:45;;;;;;;17.60;8.90;;;26.20;1.00;;;;;;5379087;26;20230;-81
2024/04/08 13:14:10;;;;;;;17.67;11.37;;;26.30;1.00;;;;;;5327274;26;20235;-82
2024/04/08 13:16:36;;;;;;;10.20;7.40;;;26.30;1.00;;;;;;5318128;26;20805;-81
2024/04/08 13:19:01;;;;;;;11.13;7.10;;;26.40;1.00;;;;;;5355751;26;20331;-81
2024/04/08 13:21:27;;;;;;;14.30;6.93;;;26.30;1.00;;;;;;5361977;26;20235;-81
2024/04/08 13:23:52;;;;;;;12.47;7.30;;;26.20;1.00;;;;;;5358268;26;20270;-83